sensor_id;sensor_type;location;lat;lon;timestamp;P1;durP1;ratioP1;P2;durP2;ratioP2
15307;SDS011;7755;52.208;6.964;2022-09-21T00:01:44;2.20;;;2.10;;
15307;SDS011;7755;52.208;6.964;2022-09-21T00:05:46;2.90;;;2.70;;
15307;SDS011;7755;52.208;6.964;2022-09-21T00:09:50;2.70;;;2.50;;
15307;SDS011;7755;52.208;6.964;2022-09-21T00:13:52;2.23;;;2.13;;
15307;SDS011;7755;52.208;6.964;2022-09-21T00:17:55;3.00;;;2.80;;
15307;SDS011;7755;52.208;6.964;2022-09-21T00:21:58;3.07;;;2.30;;
15307;SDS011;7755;52.208;6.964;2022-09-21T00:26:08;2.53;;;2.27;;
15307;SDS011;7755;52.208;6.964;2022-09-21T00:30:11;2.37;;;2.27;;
15307;SDS011;7755;52.208;6.964;2022-09-21T00:34:14;2.70;;;2.50;;
15307;SDS011;7755;52.208;6.964;2022-09-21T00:38:16;3.57;;;2.60;;
15307;SDS011;7755;52.208;6.964;2022-09-21T00:42:21;2.50;;;2.37;;
15307;SDS011;7755;52.208;6.964;2022-09-21T00:46:26;2.90;;;2.60;;
15307;SDS011;7755;52.208;6.964;2022-09-21T00:50:30;3.20;;;2.90;;
15307;SDS011;7755;52.208;6.964;2022-09-21T00:54:34;2.27;;;2.17;;
15307;SDS011;7755;52.208;6.964;2022-09-21T00:58:43;2.00;;;1.90;;
15307;SDS011;7755;52.208;6.964;2022-09-21T01:02:47;2.10;;;2.00;;
15307;SDS011;7755;52.208;6.964;2022-09-21T01:06:49;2.03;;;1.93;;
15307;SDS011;7755;52.208;6.964;2022-09-21T01:10:56;2.00;;;1.90;;
15307;SDS011;7755;52.208;6.964;2022-09-21T01:15:15;2.27;;;2.00;;
15307;SDS011;7755;52.208;6.964;2022-09-21T01:19:30;2.23;;;2.00;;
15307;SDS011;7755;52.208;6.964;2022-09-21T01:23:49;2.73;;;2.50;;
15307;SDS011;7755;52.208;6.964;2022-09-21T01:28:20;2.80;;;2.57;;
15307;SDS011;7755;52.208;6.964;2022-09-21T01:32:37;3.10;;;2.90;;
15307;SDS011;7755;52.208;6.964;2022-09-21T01:36:42;2.73;;;2.50;;
15307;SDS011;7755;52.208;6.964;2022-09-21T01:40:50;3.37;;;3.17;;
15307;SDS011;7755;52.208;6.964;2022-09-21T01:44:55;4.03;;;3.70;;
15307;SDS011;7755;52.208;6.964;2022-09-21T01:49:04;3.77;;;3.47;;
15307;SDS011;7755;52.208;6.964;2022-09-21T01:53:12;3.57;;;3.27;;
15307;SDS011;7755;52.208;6.964;2022-09-21T01:57:22;3.50;;;3.30;;
15307;SDS011;7755;52.208;6.964;2022-09-21T02:01:28;3.60;;;3.30;;
15307;SDS011;7755;52.208;6.964;2022-09-21T02:05:37;3.50;;;3.30;;
15307;SDS011;7755;52.208;6.964;2022-09-21T02:09:42;3.80;;;3.50;;
15307;SDS011;7755;52.208;6.964;2022-09-21T02:13:47;3.27;;;2.97;;
15307;SDS011;7755;52.208;6.964;2022-09-21T02:17:53;2.70;;;2.50;;
15307;SDS011;7755;52.208;6.964;2022-09-21T02:22:06;3.87;;;2.93;;
15307;SDS011;7755;52.208;6.964;2022-09-21T02:26:12;2.60;;;2.40;;
15307;SDS011;7755;52.208;6.964;2022-09-21T02:30:21;2.53;;;2.33;;
15307;SDS011;7755;52.208;6.964;2022-09-21T02:34:26;2.87;;;2.67;;
15307;SDS011;7755;52.208;6.964;2022-09-21T02:38:36;4.77;;;2.60;;
15307;SDS011;7755;52.208;6.964;2022-09-21T02:42:45;3.37;;;2.47;;
15307;SDS011;7755;52.208;6.964;2022-09-21T02:46:54;2.87;;;2.67;;
15307;SDS011;7755;52.208;6.964;2022-09-21T02:51:02;3.13;;;2.93;;
15307;SDS011;7755;52.208;6.964;2022-09-21T02:55:10;3.00;;;2.80;;
15307;SDS011;7755;52.208;6.964;2022-09-21T02:59:15;4.40;;;3.00;;
15307;SDS011;7755;52.208;6.964;2022-09-21T03:03:20;3.63;;;3.30;;
15307;SDS011;7755;52.208;6.964;2022-09-21T03:07:25;4.07;;;3.77;;
15307;SDS011;7755;52.208;6.964;2022-09-21T03:11:29;4.00;;;3.57;;
15307;SDS011;7755;52.208;6.964;2022-09-21T03:15:31;4.23;;;3.90;;
15307;SDS011;7755;52.208;6.964;2022-09-21T03:19:34;5.33;;;3.57;;
15307;SDS011;7755;52.208;6.964;2022-09-21T03:23:35;3.93;;;3.63;;
15307;SDS011;7755;52.208;6.964;2022-09-21T03:27:38;3.90;;;3.60;;
15307;SDS011;7755;52.208;6.964;2022-09-21T03:31:42;3.87;;;3.57;;
15307;SDS011;7755;52.208;6.964;2022-09-21T03:35:46;3.40;;;3.20;;
15307;SDS011;7755;52.208;6.964;2022-09-21T03:39:48;3.83;;;3.53;;
15307;SDS011;7755;52.208;6.964;2022-09-21T03:43:51;3.97;;;3.67;;
15307;SDS011;7755;52.208;6.964;2022-09-21T03:47:55;3.50;;;3.30;;
15307;SDS011;7755;52.208;6.964;2022-09-21T03:51:58;3.60;;;3.37;;
15307;SDS011;7755;52.208;6.964;2022-09-21T03:56:00;3.80;;;3.50;;
15307;SDS011;7755;52.208;6.964;2022-09-21T04:00:04;3.43;;;3.13;;
15307;SDS011;7755;52.208;6.964;2022-09-21T04:04:08;3.63;;;3.40;;
15307;SDS011;7755;52.208;6.964;2022-09-21T04:08:10;3.97;;;3.67;;
15307;SDS011;7755;52.208;6.964;2022-09-21T04:12:12;3.30;;;3.00;;
15307;SDS011;7755;52.208;6.964;2022-09-21T04:16:15;2.80;;;2.60;;
15307;SDS011;7755;52.208;6.964;2022-09-21T04:20:18;2.60;;;2.40;;
15307;SDS011;7755;52.208;6.964;2022-09-21T04:24:20;3.10;;;2.80;;
15307;SDS011;7755;52.208;6.964;2022-09-21T04:28:22;2.63;;;2.43;;
15307;SDS011;7755;52.208;6.964;2022-09-21T04:32:26;3.23;;;2.93;;
15307;SDS011;7755;52.208;6.964;2022-09-21T04:36:28;3.13;;;2.93;;
15307;SDS011;7755;52.208;6.964;2022-09-21T04:40:32;3.10;;;2.90;;
15307;SDS011;7755;52.208;6.964;2022-09-21T04:44:33;2.93;;;2.73;;
15307;SDS011;7755;52.208;6.964;2022-09-21T04:48:37;3.20;;;2.63;;
15307;SDS011;7755;52.208;6.964;2022-09-21T04:52:39;2.90;;;2.70;;
15307;SDS011;7755;52.208;6.964;2022-09-21T04:56:42;3.57;;;3.27;;
15307;SDS011;7755;52.208;6.964;2022-09-21T05:00:44;2.83;;;2.63;;
15307;SDS011;7755;52.208;6.964;2022-09-21T05:04:52;3.00;;;2.80;;
15307;SDS011;7755;52.208;6.964;2022-09-21T05:08:55;2.90;;;2.70;;
15307;SDS011;7755;52.208;6.964;2022-09-21T05:13:14;2.80;;;2.70;;
15307;SDS011;7755;52.208;6.964;2022-09-21T05:17:16;3.30;;;3.00;;
15307;SDS011;7755;52.208;6.964;2022-09-21T05:21:23;2.93;;;2.73;;
15307;SDS011;7755;52.208;6.964;2022-09-21T05:25:25;3.37;;;3.03;;
15307;SDS011;7755;52.208;6.964;2022-09-21T05:29:27;2.90;;;2.70;;
15307;SDS011;7755;52.208;6.964;2022-09-21T05:33:30;2.97;;;2.77;;
15307;SDS011;7755;52.208;6.964;2022-09-21T05:37:38;3.67;;;3.37;;
15307;SDS011;7755;52.208;6.964;2022-09-21T05:41:46;3.63;;;3.33;;
15307;SDS011;7755;52.208;6.964;2022-09-21T05:45:49;3.90;;;3.57;;
15307;SDS011;7755;52.208;6.964;2022-09-21T05:50:00;3.80;;;3.50;;
15307;SDS011;7755;52.208;6.964;2022-09-21T05:54:08;4.07;;;3.67;;
15307;SDS011;7755;52.208;6.964;2022-09-21T05:58:20;4.43;;;3.30;;
15307;SDS011;7755;52.208;6.964;2022-09-21T06:02:35;3.43;;;2.90;;
15307;SDS011;7755;52.208;6.964;2022-09-21T06:06:59;3.00;;;2.80;;
15307;SDS011;7755;52.208;6.964;2022-09-21T06:11:03;4.00;;;3.70;;
15307;SDS011;7755;52.208;6.964;2022-09-21T06:15:06;4.40;;;4.00;;
15307;SDS011;7755;52.208;6.964;2022-09-21T06:19:11;4.33;;;3.93;;
15307;SDS011;7755;52.208;6.964;2022-09-21T06:23:14;4.30;;;3.90;;
15307;SDS011;7755;52.208;6.964;2022-09-21T06:27:17;4.07;;;3.77;;
15307;SDS011;7755;52.208;6.964;2022-09-21T06:31:20;4.57;;;4.17;;
15307;SDS011;7755;52.208;6.964;2022-09-21T06:35:23;5.57;;;4.33;;
15307;SDS011;7755;52.208;6.964;2022-09-21T06:39:26;5.13;;;4.63;;
15307;SDS011;7755;52.208;6.964;2022-09-21T06:43:30;5.50;;;4.53;;
15307;SDS011;7755;52.208;6.964;2022-09-21T06:47:32;4.97;;;4.57;;
15307;SDS011;7755;52.208;6.964;2022-09-21T06:51:34;5.40;;;4.97;;
15307;SDS011;7755;52.208;6.964;2022-09-21T06:55:36;5.60;;;5.10;;
15307;SDS011;7755;52.208;6.964;2022-09-21T06:59:39;6.43;;;5.83;;
15307;SDS011;7755;52.208;6.964;2022-09-21T07:03:42;8.00;;;7.27;;
15307;SDS011;7755;52.208;6.964;2022-09-21T07:07:44;6.90;;;6.20;;
15307;SDS011;7755;52.208;6.964;2022-09-21T07:11:46;8.87;;;7.97;;
15307;SDS011;7755;52.208;6.964;2022-09-21T07:15:50;10.30;;;9.27;;
15307;SDS011;7755;52.208;6.964;2022-09-21T07:19:52;9.03;;;8.13;;
15307;SDS011;7755;52.208;6.964;2022-09-21T07:23:54;10.00;;;8.13;;
15307;SDS011;7755;52.208;6.964;2022-09-21T07:27:59;13.20;;;11.67;;
15307;SDS011;7755;52.208;6.964;2022-09-21T07:32:06;10.93;;;9.83;;
15307;SDS011;7755;52.208;6.964;2022-09-21T07:36:09;13.07;;;11.27;;
15307;SDS011;7755;52.208;6.964;2022-09-21T07:40:12;13.23;;;11.80;;
15307;SDS011;7755;52.208;6.964;2022-09-21T07:44:14;12.47;;;10.67;;
15307;SDS011;7755;52.208;6.964;2022-09-21T07:48:17;11.53;;;10.37;;
15307;SDS011;7755;52.208;6.964;2022-09-21T07:52:19;12.13;;;11.03;;
15307;SDS011;7755;52.208;6.964;2022-09-21T07:56:22;12.10;;;10.90;;
15307;SDS011;7755;52.208;6.964;2022-09-21T08:00:24;12.57;;;10.50;;
15307;SDS011;7755;52.208;6.964;2022-09-21T08:04:30;12.00;;;10.30;;
15307;SDS011;7755;52.208;6.964;2022-09-21T08:08:32;11.83;;;10.57;;
15307;SDS011;7755;52.208;6.964;2022-09-21T08:12:34;15.43;;;10.77;;
15307;SDS011;7755;52.208;6.964;2022-09-21T08:16:36;11.17;;;9.67;;
15307;SDS011;7755;52.208;6.964;2022-09-21T08:20:41;11.90;;;10.63;;
15307;SDS011;7755;52.208;6.964;2022-09-21T08:24:43;12.00;;;10.07;;
15307;SDS011;7755;52.208;6.964;2022-09-21T08:28:51;10.07;;;9.03;;
15307;SDS011;7755;52.208;6.964;2022-09-21T08:32:56;10.73;;;9.03;;
15307;SDS011;7755;52.208;6.964;2022-09-21T08:37:01;10.67;;;9.17;;
15307;SDS011;7755;52.208;6.964;2022-09-21T08:41:09;10.17;;;9.00;;
15307;SDS011;7755;52.208;6.964;2022-09-21T08:45:17;9.50;;;8.23;;
15307;SDS011;7755;52.208;6.964;2022-09-21T08:49:21;8.70;;;7.80;;
15307;SDS011;7755;52.208;6.964;2022-09-21T08:53:30;6.87;;;6.13;;
15307;SDS011;7755;52.208;6.964;2022-09-21T08:57:34;7.23;;;6.50;;
15307;SDS011;7755;52.208;6.964;2022-09-21T09:01:40;6.50;;;5.63;;
15307;SDS011;7755;52.208;6.964;2022-09-21T09:05:54;7.07;;;5.17;;
15307;SDS011;7755;52.208;6.964;2022-09-21T09:10:09;6.53;;;4.77;;
15307;SDS011;7755;52.208;6.964;2022-09-21T09:14:33;4.43;;;3.80;;
15307;SDS011;7755;52.208;6.964;2022-09-21T09:18:51;3.77;;;3.20;;
15307;SDS011;7755;52.208;6.964;2022-09-21T09:31:37;4.30;;;3.90;;
15307;SDS011;7755;52.208;6.964;2022-09-21T09:35:43;4.20;;;3.17;;
15307;SDS011;7755;52.208;6.964;2022-09-21T09:39:50;3.73;;;3.43;;
15307;SDS011;7755;52.208;6.964;2022-09-21T09:44:02;5.07;;;3.33;;
15307;SDS011;7755;52.208;6.964;2022-09-21T09:48:16;4.70;;;2.70;;
15307;SDS011;7755;52.208;6.964;2022-09-21T09:52:29;6.67;;;2.83;;
15307;SDS011;7755;52.208;6.964;2022-09-21T09:56:32;4.17;;;2.90;;
15307;SDS011;7755;52.208;6.964;2022-09-21T10:00:36;3.60;;;3.27;;
15307;SDS011;7755;52.208;6.964;2022-09-21T10:04:45;2.90;;;2.70;;
15307;SDS011;7755;52.208;6.964;2022-09-21T10:08:56;3.77;;;2.30;;
15307;SDS011;7755;52.208;6.964;2022-09-21T10:13:05;2.97;;;2.40;;
15307;SDS011;7755;52.208;6.964;2022-09-21T10:25:33;2.50;;;2.30;;
15307;SDS011;7755;52.208;6.964;2022-09-21T10:29:40;4.33;;;2.40;;
15307;SDS011;7755;52.208;6.964;2022-09-21T10:33:48;5.60;;;2.57;;
15307;SDS011;7755;52.208;6.964;2022-09-21T10:42:11;3.97;;;2.33;;
15307;SDS011;7755;52.208;6.964;2022-09-21T10:46:14;3.83;;;2.20;;
15307;SDS011;7755;52.208;6.964;2022-09-21T10:50:22;2.23;;;1.50;;
15307;SDS011;7755;52.208;6.964;2022-09-21T10:54:29;3.00;;;1.70;;
15307;SDS011;7755;52.208;6.964;2022-09-21T10:58:34;4.50;;;1.63;;
15307;SDS011;7755;52.208;6.964;2022-09-21T11:02:36;3.17;;;2.03;;
15307;SDS011;7755;52.208;6.964;2022-09-21T11:06:41;3.13;;;1.60;;
15307;SDS011;7755;52.208;6.964;2022-09-21T11:10:48;3.03;;;2.63;;
15307;SDS011;7755;52.208;6.964;2022-09-21T11:15:08;2.80;;;2.13;;
15307;SDS011;7755;52.208;6.964;2022-09-21T11:19:19;2.37;;;1.77;;
15307;SDS011;7755;52.208;6.964;2022-09-21T11:23:32;4.03;;;2.53;;
15307;SDS011;7755;52.208;6.964;2022-09-21T11:27:43;4.53;;;2.93;;
15307;SDS011;7755;52.208;6.964;2022-09-21T11:31:59;5.80;;;2.23;;
15307;SDS011;7755;52.208;6.964;2022-09-21T11:36:12;1.97;;;1.77;;
15307;SDS011;7755;52.208;6.964;2022-09-21T11:40:28;2.17;;;1.70;;
15307;SDS011;7755;52.208;6.964;2022-09-21T11:44:43;3.47;;;2.30;;
15307;SDS011;7755;52.208;6.964;2022-09-21T11:48:58;2.80;;;2.00;;
15307;SDS011;7755;52.208;6.964;2022-09-21T11:57:41;1.77;;;1.50;;
15307;SDS011;7755;52.208;6.964;2022-09-21T12:01:55;1.30;;;1.20;;
15307;SDS011;7755;52.208;6.964;2022-09-21T12:06:25;1.20;;;1.10;;
15307;SDS011;7755;52.208;6.964;2022-09-21T12:10:41;4.03;;;1.40;;
15307;SDS011;7755;52.208;6.964;2022-09-21T12:14:51;1.27;;;1.13;;
15307;SDS011;7755;52.208;6.964;2022-09-21T12:18:59;1.97;;;1.20;;
15307;SDS011;7755;52.208;6.964;2022-09-21T12:23:09;1.53;;;1.13;;
15307;SDS011;7755;52.208;6.964;2022-09-21T12:27:24;1.63;;;1.10;;
15307;SDS011;7755;52.208;6.964;2022-09-21T12:31:30;1.27;;;1.03;;
15307;SDS011;7755;52.208;6.964;2022-09-21T12:35:40;1.60;;;1.10;;
15307;SDS011;7755;52.208;6.964;2022-09-21T12:39:47;2.50;;;1.57;;
15307;SDS011;7755;52.208;6.964;2022-09-21T12:43:55;2.70;;;1.30;;
15307;SDS011;7755;52.208;6.964;2022-09-21T12:48:08;1.60;;;1.17;;
15307;SDS011;7755;52.208;6.964;2022-09-21T12:52:18;1.87;;;1.40;;
15307;SDS011;7755;52.208;6.964;2022-09-21T12:56:27;1.67;;;1.20;;
15307;SDS011;7755;52.208;6.964;2022-09-21T13:00:38;1.63;;;1.40;;
15307;SDS011;7755;52.208;6.964;2022-09-21T13:04:47;1.40;;;1.30;;
15307;SDS011;7755;52.208;6.964;2022-09-21T13:08:56;2.03;;;1.47;;
15307;SDS011;7755;52.208;6.964;2022-09-21T13:13:02;1.77;;;1.53;;
15307;SDS011;7755;52.208;6.964;2022-09-21T13:17:17;2.53;;;1.87;;
15307;SDS011;7755;52.208;6.964;2022-09-21T13:21:24;3.13;;;1.60;;
15307;SDS011;7755;52.208;6.964;2022-09-21T13:25:29;1.70;;;1.60;;
15307;SDS011;7755;52.208;6.964;2022-09-21T13:29:36;1.83;;;1.47;;
15307;SDS011;7755;52.208;6.964;2022-09-21T13:33:40;2.20;;;1.40;;
15307;SDS011;7755;52.208;6.964;2022-09-21T13:38:24;2.20;;;1.60;;
15307;SDS011;7755;52.208;6.964;2022-09-21T13:42:43;1.87;;;1.40;;
15307;SDS011;7755;52.208;6.964;2022-09-21T13:46:48;2.47;;;1.90;;
15307;SDS011;7755;52.208;6.964;2022-09-21T13:50:56;1.47;;;1.37;;
15307;SDS011;7755;52.208;6.964;2022-09-21T13:55:03;2.70;;;2.00;;
15307;SDS011;7755;52.208;6.964;2022-09-21T13:59:12;2.20;;;1.67;;
15307;SDS011;7755;52.208;6.964;2022-09-21T14:03:23;2.27;;;1.73;;
15307;SDS011;7755;52.208;6.964;2022-09-21T14:07:27;2.00;;;1.40;;
15307;SDS011;7755;52.208;6.964;2022-09-21T14:11:33;1.63;;;1.30;;
15307;SDS011;7755;52.208;6.964;2022-09-21T14:15:38;1.70;;;1.50;;
15307;SDS011;7755;52.208;6.964;2022-09-21T14:24:17;2.73;;;2.13;;
15307;SDS011;7755;52.208;6.964;2022-09-21T14:28:27;1.57;;;1.47;;
15307;SDS011;7755;52.208;6.964;2022-09-21T14:32:35;1.67;;;1.50;;
15307;SDS011;7755;52.208;6.964;2022-09-21T14:36:44;2.00;;;1.20;;
15307;SDS011;7755;52.208;6.964;2022-09-21T14:40:49;3.37;;;1.53;;
15307;SDS011;7755;52.208;6.964;2022-09-21T14:44:56;3.20;;;1.60;;
15307;SDS011;7755;52.208;6.964;2022-09-21T14:49:04;3.50;;;1.70;;
15307;SDS011;7755;52.208;6.964;2022-09-21T14:53:31;2.20;;;1.60;;
15307;SDS011;7755;52.208;6.964;2022-09-21T14:57:58;2.20;;;1.97;;
15307;SDS011;7755;52.208;6.964;2022-09-21T15:02:19;2.27;;;1.60;;
15307;SDS011;7755;52.208;6.964;2022-09-21T15:06:25;3.63;;;3.33;;
15307;SDS011;7755;52.208;6.964;2022-09-21T15:10:52;2.60;;;2.13;;
15307;SDS011;7755;52.208;6.964;2022-09-21T15:14:58;1.73;;;1.50;;
15307;SDS011;7755;52.208;6.964;2022-09-21T15:19:20;3.73;;;1.70;;
15307;SDS011;7755;52.208;6.964;2022-09-21T15:23:23;1.90;;;1.80;;
15307;SDS011;7755;52.208;6.964;2022-09-21T15:27:26;2.00;;;1.63;;
15307;SDS011;7755;52.208;6.964;2022-09-21T15:31:32;2.00;;;1.90;;
15307;SDS011;7755;52.208;6.964;2022-09-21T15:35:37;1.83;;;1.70;;
15307;SDS011;7755;52.208;6.964;2022-09-21T15:39:39;4.23;;;3.10;;
15307;SDS011;7755;52.208;6.964;2022-09-21T15:43:41;3.97;;;2.37;;
15307;SDS011;7755;52.208;6.964;2022-09-21T15:47:46;2.30;;;2.10;;
15307;SDS011;7755;52.208;6.964;2022-09-21T15:51:49;3.13;;;2.07;;
15307;SDS011;7755;52.208;6.964;2022-09-21T15:55:56;4.03;;;1.53;;
15307;SDS011;7755;52.208;6.964;2022-09-21T16:00:01;1.63;;;1.53;;
15307;SDS011;7755;52.208;6.964;2022-09-21T16:04:06;4.00;;;1.87;;
15307;SDS011;7755;52.208;6.964;2022-09-21T16:08:20;3.23;;;1.50;;
15307;SDS011;7755;52.208;6.964;2022-09-21T16:12:42;1.77;;;1.60;;
15307;SDS011;7755;52.208;6.964;2022-09-21T16:17:04;4.23;;;1.67;;
15307;SDS011;7755;52.208;6.964;2022-09-21T16:21:20;1.80;;;1.60;;
15307;SDS011;7755;52.208;6.964;2022-09-21T16:25:26;2.40;;;1.43;;
15307;SDS011;7755;52.208;6.964;2022-09-21T16:29:36;1.73;;;1.30;;
15307;SDS011;7755;52.208;6.964;2022-09-21T16:33:40;1.93;;;1.30;;
15307;SDS011;7755;52.208;6.964;2022-09-21T16:37:44;2.13;;;1.47;;
15307;SDS011;7755;52.208;6.964;2022-09-21T16:41:52;2.47;;;1.50;;
15307;SDS011;7755;52.208;6.964;2022-09-21T16:45:57;1.40;;;1.30;;
15307;SDS011;7755;52.208;6.964;2022-09-21T16:50:01;1.97;;;1.60;;
15307;SDS011;7755;52.208;6.964;2022-09-21T16:54:09;2.33;;;1.50;;
15307;SDS011;7755;52.208;6.964;2022-09-21T16:58:12;3.10;;;1.83;;
15307;SDS011;7755;52.208;6.964;2022-09-21T17:02:14;2.23;;;1.90;;
15307;SDS011;7755;52.208;6.964;2022-09-21T17:06:18;6.90;;;6.30;;
15307;SDS011;7755;52.208;6.964;2022-09-21T17:10:22;8.37;;;7.57;;
15307;SDS011;7755;52.208;6.964;2022-09-21T17:14:30;5.10;;;4.70;;
15307;SDS011;7755;52.208;6.964;2022-09-21T17:18:35;4.13;;;3.30;;
15307;SDS011;7755;52.208;6.964;2022-09-21T17:22:37;2.37;;;2.10;;
15307;SDS011;7755;52.208;6.964;2022-09-21T17:26:39;2.43;;;2.30;;
15307;SDS011;7755;52.208;6.964;2022-09-21T17:30:42;2.37;;;2.17;;
15307;SDS011;7755;52.208;6.964;2022-09-21T17:34:45;2.63;;;2.07;;
15307;SDS011;7755;52.208;6.964;2022-09-21T17:38:49;1.40;;;1.40;;
15307;SDS011;7755;52.208;6.964;2022-09-21T17:42:52;2.97;;;1.90;;
15307;SDS011;7755;52.208;6.964;2022-09-21T17:46:58;4.27;;;3.70;;
15307;SDS011;7755;52.208;6.964;2022-09-21T17:51:04;6.07;;;5.47;;
15307;SDS011;7755;52.208;6.964;2022-09-21T17:55:09;16.03;;;11.10;;
15307;SDS011;7755;52.208;6.964;2022-09-21T17:59:18;14.37;;;10.17;;
15307;SDS011;7755;52.208;6.964;2022-09-21T18:03:29;12.17;;;8.73;;
15307;SDS011;7755;52.208;6.964;2022-09-21T18:07:35;10.60;;;6.97;;
15307;SDS011;7755;52.208;6.964;2022-09-21T18:16:20;7.47;;;6.27;;
15307;SDS011;7755;52.208;6.964;2022-09-21T18:20:33;6.27;;;5.13;;
15307;SDS011;7755;52.208;6.964;2022-09-21T18:24:43;6.37;;;5.57;;
15307;SDS011;7755;52.208;6.964;2022-09-21T18:28:46;9.73;;;8.27;;
15307;SDS011;7755;52.208;6.964;2022-09-21T18:33:01;11.70;;;10.60;;
15307;SDS011;7755;52.208;6.964;2022-09-21T18:37:13;12.40;;;10.47;;
15307;SDS011;7755;52.208;6.964;2022-09-21T18:41:24;9.27;;;8.13;;
15307;SDS011;7755;52.208;6.964;2022-09-21T18:45:32;5.93;;;5.27;;
15307;SDS011;7755;52.208;6.964;2022-09-21T18:49:41;3.80;;;3.50;;
15307;SDS011;7755;52.208;6.964;2022-09-21T18:53:55;3.90;;;3.50;;
15307;SDS011;7755;52.208;6.964;2022-09-21T18:57:59;7.23;;;6.03;;
15307;SDS011;7755;52.208;6.964;2022-09-21T19:02:02;8.10;;;6.50;;
15307;SDS011;7755;52.208;6.964;2022-09-21T19:06:11;7.10;;;6.40;;
15307;SDS011;7755;52.208;6.964;2022-09-21T19:10:23;6.10;;;5.47;;
15307;SDS011;7755;52.208;6.964;2022-09-21T19:18:55;5.53;;;5.03;;
15307;SDS011;7755;52.208;6.964;2022-09-21T19:23:07;6.73;;;5.00;;
15307;SDS011;7755;52.208;6.964;2022-09-21T19:27:27;3.83;;;3.53;;
15307;SDS011;7755;52.208;6.964;2022-09-21T19:31:37;4.10;;;3.77;;
15307;SDS011;7755;52.208;6.964;2022-09-21T19:35:39;4.47;;;4.07;;
15307;SDS011;7755;52.208;6.964;2022-09-21T19:39:42;5.50;;;4.70;;
15307;SDS011;7755;52.208;6.964;2022-09-21T19:43:47;5.13;;;4.63;;
15307;SDS011;7755;52.208;6.964;2022-09-21T19:48:00;5.47;;;4.97;;
15307;SDS011;7755;52.208;6.964;2022-09-21T19:52:05;7.13;;;5.80;;
15307;SDS011;7755;52.208;6.964;2022-09-21T19:56:09;7.27;;;6.57;;
15307;SDS011;7755;52.208;6.964;2022-09-21T20:00:33;12.13;;;10.63;;
15307;SDS011;7755;52.208;6.964;2022-09-21T20:04:38;13.43;;;11.37;;
15307;SDS011;7755;52.208;6.964;2022-09-21T20:08:48;10.83;;;9.53;;
15307;SDS011;7755;52.208;6.964;2022-09-21T20:12:58;7.90;;;7.20;;
15307;SDS011;7755;52.208;6.964;2022-09-21T20:17:11;5.57;;;5.03;;
15307;SDS011;7755;52.208;6.964;2022-09-21T20:21:20;5.17;;;4.77;;
15307;SDS011;7755;52.208;6.964;2022-09-21T20:25:25;5.27;;;4.87;;
15307;SDS011;7755;52.208;6.964;2022-09-21T20:29:32;5.33;;;4.83;;
15307;SDS011;7755;52.208;6.964;2022-09-21T20:33:36;12.80;;;11.50;;
15307;SDS011;7755;52.208;6.964;2022-09-21T20:37:38;9.10;;;8.20;;
15307;SDS011;7755;52.208;6.964;2022-09-21T20:41:40;7.07;;;6.20;;
15307;SDS011;7755;52.208;6.964;2022-09-21T20:45:43;5.13;;;4.73;;
15307;SDS011;7755;52.208;6.964;2022-09-21T20:49:48;6.03;;;4.77;;
15307;SDS011;7755;52.208;6.964;2022-09-21T20:53:50;5.73;;;4.27;;
15307;SDS011;7755;52.208;6.964;2022-09-21T20:57:52;5.30;;;4.90;;
15307;SDS011;7755;52.208;6.964;2022-09-21T21:01:54;10.03;;;9.03;;
15307;SDS011;7755;52.208;6.964;2022-09-21T21:06:06;10.20;;;9.40;;
15307;SDS011;7755;52.208;6.964;2022-09-21T21:10:10;10.43;;;9.53;;
15307;SDS011;7755;52.208;6.964;2022-09-21T21:14:13;9.63;;;8.70;;
15307;SDS011;7755;52.208;6.964;2022-09-21T21:18:15;8.60;;;7.80;;
15307;SDS011;7755;52.208;6.964;2022-09-21T21:22:18;8.17;;;7.47;;
15307;SDS011;7755;52.208;6.964;2022-09-21T21:26:20;8.87;;;8.10;;
15307;SDS011;7755;52.208;6.964;2022-09-21T21:30:23;8.90;;;8.00;;
15307;SDS011;7755;52.208;6.964;2022-09-21T21:34:24;11.00;;;9.90;;
15307;SDS011;7755;52.208;6.964;2022-09-21T21:38:28;11.07;;;9.13;;
15307;SDS011;7755;52.208;6.964;2022-09-21T21:42:30;8.53;;;7.73;;
15307;SDS011;7755;52.208;6.964;2022-09-21T21:46:32;6.03;;;5.57;;
15307;SDS011;7755;52.208;6.964;2022-09-21T21:50:34;4.63;;;4.30;;
15307;SDS011;7755;52.208;6.964;2022-09-21T21:54:37;4.57;;;4.20;;
15307;SDS011;7755;52.208;6.964;2022-09-21T21:58:40;4.83;;;4.43;;
15307;SDS011;7755;52.208;6.964;2022-09-21T22:02:43;6.73;;;6.10;;
15307;SDS011;7755;52.208;6.964;2022-09-21T22:06:45;8.23;;;7.20;;
15307;SDS011;7755;52.208;6.964;2022-09-21T22:10:50;7.00;;;6.40;;
15307;SDS011;7755;52.208;6.964;2022-09-21T22:14:52;7.87;;;7.13;;
15307;SDS011;7755;52.208;6.964;2022-09-21T22:18:54;6.83;;;6.30;;
15307;SDS011;7755;52.208;6.964;2022-09-21T22:22:56;6.53;;;5.93;;
15307;SDS011;7755;52.208;6.964;2022-09-21T22:26:59;4.63;;;4.30;;
15307;SDS011;7755;52.208;6.964;2022-09-21T22:31:02;4.17;;;3.73;;
15307;SDS011;7755;52.208;6.964;2022-09-21T22:35:08;3.90;;;3.60;;
15307;SDS011;7755;52.208;6.964;2022-09-21T22:39:11;3.83;;;3.57;;
15307;SDS011;7755;52.208;6.964;2022-09-21T22:43:15;4.63;;;4.20;;
15307;SDS011;7755;52.208;6.964;2022-09-21T22:47:17;4.57;;;4.17;;
15307;SDS011;7755;52.208;6.964;2022-09-21T22:51:19;4.07;;;3.77;;
15307;SDS011;7755;52.208;6.964;2022-09-21T22:55:21;3.60;;;3.33;;
15307;SDS011;7755;52.208;6.964;2022-09-21T22:59:25;4.77;;;4.37;;
15307;SDS011;7755;52.208;6.964;2022-09-21T23:03:27;4.37;;;4.03;;
15307;SDS011;7755;52.208;6.964;2022-09-21T23:07:28;4.40;;;4.10;;
15307;SDS011;7755;52.208;6.964;2022-09-21T23:11:31;4.67;;;4.33;;
15307;SDS011;7755;52.208;6.964;2022-09-21T23:15:35;3.90;;;3.67;;
15307;SDS011;7755;52.208;6.964;2022-09-21T23:19:37;4.77;;;4.47;;
15307;SDS011;7755;52.208;6.964;2022-09-21T23:23:39;5.20;;;4.80;;
15307;SDS011;7755;52.208;6.964;2022-09-21T23:27:41;4.13;;;3.93;;
15307;SDS011;7755;52.208;6.964;2022-09-21T23:31:44;4.43;;;4.13;;
15307;SDS011;7755;52.208;6.964;2022-09-21T23:35:48;4.53;;;4.23;;
15307;SDS011;7755;52.208;6.964;2022-09-21T23:39:50;4.50;;;4.20;;
15307;SDS011;7755;52.208;6.964;2022-09-21T23:43:52;5.67;;;5.17;;
15307;SDS011;7755;52.208;6.964;2022-09-21T23:47:56;4.43;;;4.10;;
15307;SDS011;7755;52.208;6.964;2022-09-21T23:51:58;4.93;;;4.57;;
15307;SDS011;7755;52.208;6.964;2022-09-21T23:56:00;5.20;;;4.80;;
